Terminal Aerodrome Forecast
Issued by NWS

Home | Current Version | Previous Version | Text Only | Print | Product List | Glossary On
Versions: 1 2 3 4 5 6 7 8 9 10 11 12 13 14 15 16 17 18 19 20 21 22 23 24 25 26 27 28
000
FTUS43 KBIS 060544
TAFMOT
TAF
KMOT 060544Z 0606/0706 31008KT 4SM FU SCT030
      TEMPO 0606/0610 2SM FU BKN025 BKN150
     FM061000 32006KT 3SM FU SCT025 BKN100
      TEMPO 0610/0614 2SM FU BKN025 BKN100
     FM061600 34012KT 5SM FU BKN035 BKN100
     FM062100 35012KT 6SM FU SCT040
     FM070300 VRB03KT 3SM FU SKC=

USA.gov is the U.S. government's official web portal to all federal, state and local government web resources and services.